sensor_id;sensor_type;location;lat;lon;timestamp;temperature;humidity
61016;DHT22;46902;52.920;6.536;2023-07-13T00:02:15;16.80;99.30
61016;DHT22;46902;52.920;6.536;2023-07-13T00:04:41;16.70;99.60
61016;DHT22;46902;52.920;6.536;2023-07-13T00:07:07;16.70;99.90
61016;DHT22;46902;52.920;6.536;2023-07-13T00:09:34;16.70;99.90
61016;DHT22;46902;52.920;6.536;2023-07-13T00:12:00;16.70;99.90
61016;DHT22;46902;52.920;6.536;2023-07-13T00:14:27;16.70;99.90
61016;DHT22;46902;52.920;6.536;2023-07-13T00:16:54;16.70;99.90
61016;DHT22;46902;52.920;6.536;2023-07-13T00:19:19;16.70;99.90
61016;DHT22;46902;52.920;6.536;2023-07-13T00:21:45;16.80;99.90
61016;DHT22;46902;52.920;6.536;2023-07-13T00:24:14;16.80;99.90
61016;DHT22;46902;52.920;6.536;2023-07-13T00:26:40;16.80;99.90
61016;DHT22;46902;52.920;6.536;2023-07-13T00:29:06;16.80;99.90
61016;DHT22;46902;52.920;6.536;2023-07-13T00:31:34;16.80;99.90
61016;DHT22;46902;52.920;6.536;2023-07-13T00:33:59;16.90;99.90
61016;DHT22;46902;52.920;6.536;2023-07-13T00:36:25;16.90;99.90
61016;DHT22;46902;52.920;6.536;2023-07-13T00:38:51;16.90;99.90
61016;DHT22;46902;52.920;6.536;2023-07-13T00:41:18;16.90;99.90
61016;DHT22;46902;52.920;6.536;2023-07-13T00:43:44;16.90;99.90
61016;DHT22;46902;52.920;6.536;2023-07-13T00:46:21;16.90;99.90
61016;DHT22;46902;52.920;6.536;2023-07-13T00:48:48;16.90;99.90
61016;DHT22;46902;52.920;6.536;2023-07-13T00:51:17;16.90;99.90
61016;DHT22;46902;52.920;6.536;2023-07-13T00:53:44;16.90;99.90
61016;DHT22;46902;52.920;6.536;2023-07-13T00:56:10;16.90;99.90
61016;DHT22;46902;52.920;6.536;2023-07-13T00:58:37;16.90;99.90
61016;DHT22;46902;52.920;6.536;2023-07-13T01:01:02;16.90;99.90
61016;DHT22;46902;52.920;6.536;2023-07-13T01:03:28;16.90;99.90
61016;DHT22;46902;52.920;6.536;2023-07-13T01:05:55;16.90;99.90
61016;DHT22;46902;52.920;6.536;2023-07-13T01:08:21;16.90;99.90
61016;DHT22;46902;52.920;6.536;2023-07-13T01:10:57;16.80;99.90
61016;DHT22;46902;52.920;6.536;2023-07-13T01:13:23;16.90;99.90
61016;DHT22;46902;52.920;6.536;2023-07-13T01:15:51;16.90;99.90
61016;DHT22;46902;52.920;6.536;2023-07-13T01:18:27;16.90;99.90
61016;DHT22;46902;52.920;6.536;2023-07-13T01:20:59;16.90;99.90
61016;DHT22;46902;52.920;6.536;2023-07-13T01:23:26;16.90;99.90
61016;DHT22;46902;52.920;6.536;2023-07-13T01:25:53;16.80;99.90
61016;DHT22;46902;52.920;6.536;2023-07-13T01:28:21;16.80;99.90
61016;DHT22;46902;52.920;6.536;2023-07-13T01:30:47;16.80;99.90
61016;DHT22;46902;52.920;6.536;2023-07-13T01:33:16;16.80;99.90
61016;DHT22;46902;52.920;6.536;2023-07-13T01:35:42;16.70;99.90
61016;DHT22;46902;52.920;6.536;2023-07-13T01:38:09;16.70;99.90
61016;DHT22;46902;52.920;6.536;2023-07-13T01:40:36;16.70;99.90
61016;DHT22;46902;52.920;6.536;2023-07-13T01:43:01;16.70;99.90
61016;DHT22;46902;52.920;6.536;2023-07-13T01:45:27;16.70;99.90
61016;DHT22;46902;52.920;6.536;2023-07-13T01:47:53;16.60;99.90
61016;DHT22;46902;52.920;6.536;2023-07-13T01:50:18;16.70;99.90
61016;DHT22;46902;52.920;6.536;2023-07-13T01:52:44;16.60;99.90
61016;DHT22;46902;52.920;6.536;2023-07-13T01:55:09;16.60;99.90
61016;DHT22;46902;52.920;6.536;2023-07-13T01:57:35;16.60;99.90
61016;DHT22;46902;52.920;6.536;2023-07-13T02:00:05;16.60;99.90
61016;DHT22;46902;52.920;6.536;2023-07-13T02:02:31;16.60;99.90
61016;DHT22;46902;52.920;6.536;2023-07-13T02:04:57;16.60;99.90
61016;DHT22;46902;52.920;6.536;2023-07-13T02:07:23;16.50;99.90
61016;DHT22;46902;52.920;6.536;2023-07-13T02:09:48;16.50;99.90
61016;DHT22;46902;52.920;6.536;2023-07-13T02:12:14;16.40;99.90
61016;DHT22;46902;52.920;6.536;2023-07-13T02:14:39;16.40;99.90
61016;DHT22;46902;52.920;6.536;2023-07-13T02:17:05;16.40;99.90
61016;DHT22;46902;52.920;6.536;2023-07-13T02:19:31;16.40;99.90
61016;DHT22;46902;52.920;6.536;2023-07-13T02:21:57;16.30;99.90
61016;DHT22;46902;52.920;6.536;2023-07-13T02:24:23;16.40;99.90
61016;DHT22;46902;52.920;6.536;2023-07-13T02:26:48;16.30;99.90
61016;DHT22;46902;52.920;6.536;2023-07-13T02:29:14;16.30;99.90
61016;DHT22;46902;52.920;6.536;2023-07-13T02:31:39;16.30;99.90
61016;DHT22;46902;52.920;6.536;2023-07-13T02:34:05;16.30;99.90
61016;DHT22;46902;52.920;6.536;2023-07-13T02:36:32;16.30;99.90
61016;DHT22;46902;52.920;6.536;2023-07-13T02:39:02;16.20;99.90
61016;DHT22;46902;52.920;6.536;2023-07-13T02:41:28;16.20;99.90
61016;DHT22;46902;52.920;6.536;2023-07-13T02:43:54;16.20;99.90
61016;DHT22;46902;52.920;6.536;2023-07-13T02:46:28;16.10;99.90
61016;DHT22;46902;52.920;6.536;2023-07-13T02:48:54;16.20;99.90
61016;DHT22;46902;52.920;6.536;2023-07-13T02:51:19;16.10;99.90
61016;DHT22;46902;52.920;6.536;2023-07-13T02:53:45;16.10;99.90
61016;DHT22;46902;52.920;6.536;2023-07-13T02:56:10;16.00;99.90
61016;DHT22;46902;52.920;6.536;2023-07-13T02:58:36;16.10;99.90
61016;DHT22;46902;52.920;6.536;2023-07-13T03:01:08;16.00;99.90
61016;DHT22;46902;52.920;6.536;2023-07-13T03:03:34;16.00;99.90
61016;DHT22;46902;52.920;6.536;2023-07-13T03:06:02;16.00;99.90
61016;DHT22;46902;52.920;6.536;2023-07-13T03:08:28;16.00;99.90
61016;DHT22;46902;52.920;6.536;2023-07-13T03:11:02;16.00;99.90
61016;DHT22;46902;52.920;6.536;2023-07-13T03:13:28;16.10;99.90
61016;DHT22;46902;52.920;6.536;2023-07-13T03:15:54;16.10;99.90
61016;DHT22;46902;52.920;6.536;2023-07-13T03:18:19;16.00;99.90
61016;DHT22;46902;52.920;6.536;2023-07-13T03:20:45;16.10;99.90
61016;DHT22;46902;52.920;6.536;2023-07-13T03:23:11;16.00;99.90
61016;DHT22;46902;52.920;6.536;2023-07-13T03:25:36;16.00;99.90
61016;DHT22;46902;52.920;6.536;2023-07-13T03:28:02;16.00;99.90
61016;DHT22;46902;52.920;6.536;2023-07-13T03:30:27;16.00;99.90
61016;DHT22;46902;52.920;6.536;2023-07-13T03:32:53;16.10;99.90
61016;DHT22;46902;52.920;6.536;2023-07-13T03:35:19;16.10;99.90
61016;DHT22;46902;52.920;6.536;2023-07-13T03:37:44;16.10;99.90
61016;DHT22;46902;52.920;6.536;2023-07-13T03:40:12;16.10;99.90
61016;DHT22;46902;52.920;6.536;2023-07-13T03:42:38;16.10;99.90
61016;DHT22;46902;52.920;6.536;2023-07-13T03:45:04;16.20;99.90
61016;DHT22;46902;52.920;6.536;2023-07-13T03:47:30;16.20;99.90
61016;DHT22;46902;52.920;6.536;2023-07-13T03:49:55;16.20;99.90
61016;DHT22;46902;52.920;6.536;2023-07-13T03:52:21;16.20;99.90
61016;DHT22;46902;52.920;6.536;2023-07-13T03:54:46;16.10;99.90
61016;DHT22;46902;52.920;6.536;2023-07-13T03:57:12;16.10;99.90
61016;DHT22;46902;52.920;6.536;2023-07-13T03:59:37;16.10;99.90
61016;DHT22;46902;52.920;6.536;2023-07-13T04:02:03;16.10;99.90
61016;DHT22;46902;52.920;6.536;2023-07-13T04:04:29;16.10;99.90
61016;DHT22;46902;52.920;6.536;2023-07-13T04:06:57;16.10;99.90
61016;DHT22;46902;52.920;6.536;2023-07-13T04:09:24;16.00;99.90
61016;DHT22;46902;52.920;6.536;2023-07-13T04:11:49;16.00;99.90
61016;DHT22;46902;52.920;6.536;2023-07-13T04:14:15;16.10;99.90
61016;DHT22;46902;52.920;6.536;2023-07-13T04:16:41;16.00;99.90
61016;DHT22;46902;52.920;6.536;2023-07-13T04:19:08;16.00;99.90
61016;DHT22;46902;52.920;6.536;2023-07-13T04:21:36;16.00;99.90
61016;DHT22;46902;52.920;6.536;2023-07-13T04:24:02;16.00;99.90
61016;DHT22;46902;52.920;6.536;2023-07-13T04:26:28;16.00;99.90
61016;DHT22;46902;52.920;6.536;2023-07-13T04:28:55;16.00;99.90
61016;DHT22;46902;52.920;6.536;2023-07-13T04:31:21;16.00;99.90
61016;DHT22;46902;52.920;6.536;2023-07-13T04:33:47;16.00;99.90
61016;DHT22;46902;52.920;6.536;2023-07-13T04:36:15;16.00;99.90
61016;DHT22;46902;52.920;6.536;2023-07-13T04:38:40;16.00;99.90
61016;DHT22;46902;52.920;6.536;2023-07-13T04:41:08;16.10;99.90
61016;DHT22;46902;52.920;6.536;2023-07-13T04:43:34;16.10;99.90
61016;DHT22;46902;52.920;6.536;2023-07-13T04:46:09;16.10;99.90
61016;DHT22;46902;52.920;6.536;2023-07-13T04:48:36;16.10;99.90
61016;DHT22;46902;52.920;6.536;2023-07-13T04:51:02;16.10;99.90
61016;DHT22;46902;52.920;6.536;2023-07-13T04:53:29;16.20;99.90
61016;DHT22;46902;52.920;6.536;2023-07-13T04:55:55;16.20;99.90
61016;DHT22;46902;52.920;6.536;2023-07-13T04:58:21;16.30;99.90
61016;DHT22;46902;52.920;6.536;2023-07-13T05:00:48;16.30;99.90
61016;DHT22;46902;52.920;6.536;2023-07-13T05:03:13;16.30;99.90
61016;DHT22;46902;52.920;6.536;2023-07-13T05:05:39;16.30;99.90
61016;DHT22;46902;52.920;6.536;2023-07-13T05:08:05;16.30;99.90
61016;DHT22;46902;52.920;6.536;2023-07-13T05:10:30;16.30;99.90
61016;DHT22;46902;52.920;6.536;2023-07-13T05:12:56;16.30;99.90
61016;DHT22;46902;52.920;6.536;2023-07-13T05:15:22;16.30;99.90
61016;DHT22;46902;52.920;6.536;2023-07-13T05:17:49;16.30;99.90
61016;DHT22;46902;52.920;6.536;2023-07-13T05:20:15;16.40;99.90
61016;DHT22;46902;52.920;6.536;2023-07-13T05:22:41;16.40;99.90
61016;DHT22;46902;52.920;6.536;2023-07-13T05:25:07;16.40;99.90
61016;DHT22;46902;52.920;6.536;2023-07-13T05:27:34;16.50;99.90
61016;DHT22;46902;52.920;6.536;2023-07-13T05:30:01;16.60;99.90
61016;DHT22;46902;52.920;6.536;2023-07-13T05:32:27;16.60;99.90
61016;DHT22;46902;52.920;6.536;2023-07-13T05:34:52;16.60;99.90
61016;DHT22;46902;52.920;6.536;2023-07-13T05:37:18;16.60;99.90
61016;DHT22;46902;52.920;6.536;2023-07-13T05:39:44;16.70;99.90
61016;DHT22;46902;52.920;6.536;2023-07-13T05:42:09;16.70;99.90
61016;DHT22;46902;52.920;6.536;2023-07-13T05:44:35;16.80;99.90
61016;DHT22;46902;52.920;6.536;2023-07-13T05:47:01;16.90;99.90
61016;DHT22;46902;52.920;6.536;2023-07-13T05:49:26;16.90;99.90
61016;DHT22;46902;52.920;6.536;2023-07-13T05:51:52;17.00;99.90
61016;DHT22;46902;52.920;6.536;2023-07-13T05:54:18;17.00;99.90
61016;DHT22;46902;52.920;6.536;2023-07-13T05:56:44;17.10;99.90
61016;DHT22;46902;52.920;6.536;2023-07-13T05:59:09;17.10;99.90
61016;DHT22;46902;52.920;6.536;2023-07-13T06:01:35;17.20;99.90
61016;DHT22;46902;52.920;6.536;2023-07-13T06:04:00;17.20;99.90
61016;DHT22;46902;52.920;6.536;2023-07-13T06:06:26;17.30;99.90
61016;DHT22;46902;52.920;6.536;2023-07-13T06:08:52;17.40;99.90
61016;DHT22;46902;52.920;6.536;2023-07-13T06:11:20;17.40;99.90
61016;DHT22;46902;52.920;6.536;2023-07-13T06:13:46;17.50;99.90
61016;DHT22;46902;52.920;6.536;2023-07-13T06:16:12;17.60;99.90
61016;DHT22;46902;52.920;6.536;2023-07-13T06:18:39;17.70;99.90
61016;DHT22;46902;52.920;6.536;2023-07-13T06:21:07;17.80;99.90
61016;DHT22;46902;52.920;6.536;2023-07-13T06:23:33;17.90;99.90
61016;DHT22;46902;52.920;6.536;2023-07-13T06:25:58;17.90;99.90
61016;DHT22;46902;52.920;6.536;2023-07-13T06:28:24;18.00;99.90
61016;DHT22;46902;52.920;6.536;2023-07-13T06:30:50;18.10;99.90
61016;DHT22;46902;52.920;6.536;2023-07-13T06:33:15;18.20;99.90
61016;DHT22;46902;52.920;6.536;2023-07-13T06:35:42;18.20;99.90
61016;DHT22;46902;52.920;6.536;2023-07-13T06:38:07;18.30;99.90
61016;DHT22;46902;52.920;6.536;2023-07-13T06:40:33;18.30;99.90
61016;DHT22;46902;52.920;6.536;2023-07-13T06:42:58;18.50;99.90
61016;DHT22;46902;52.920;6.536;2023-07-13T06:45:24;18.50;99.90
61016;DHT22;46902;52.920;6.536;2023-07-13T06:47:50;18.60;99.90
61016;DHT22;46902;52.920;6.536;2023-07-13T06:50:15;18.70;99.90
61016;DHT22;46902;52.920;6.536;2023-07-13T06:52:41;18.70;99.90
61016;DHT22;46902;52.920;6.536;2023-07-13T06:55:07;18.80;99.90
61016;DHT22;46902;52.920;6.536;2023-07-13T06:57:33;19.00;99.90
61016;DHT22;46902;52.920;6.536;2023-07-13T06:59:59;19.30;99.90
61016;DHT22;46902;52.920;6.536;2023-07-13T07:02:25;19.40;99.90
61016;DHT22;46902;52.920;6.536;2023-07-13T07:04:50;19.50;99.90
61016;DHT22;46902;52.920;6.536;2023-07-13T07:07:16;19.50;99.90
61016;DHT22;46902;52.920;6.536;2023-07-13T07:09:42;19.50;99.90
61016;DHT22;46902;52.920;6.536;2023-07-13T07:12:08;19.50;99.90
61016;DHT22;46902;52.920;6.536;2023-07-13T07:14:33;19.50;99.90
61016;DHT22;46902;52.920;6.536;2023-07-13T07:17:00;19.50;99.90
61016;DHT22;46902;52.920;6.536;2023-07-13T07:19:27;19.50;99.90
61016;DHT22;46902;52.920;6.536;2023-07-13T07:21:52;19.50;99.90
61016;DHT22;46902;52.920;6.536;2023-07-13T07:24:18;19.40;99.90
61016;DHT22;46902;52.920;6.536;2023-07-13T07:26:43;19.40;99.90
61016;DHT22;46902;52.920;6.536;2023-07-13T07:29:09;19.60;99.90
61016;DHT22;46902;52.920;6.536;2023-07-13T07:31:34;19.90;99.90
61016;DHT22;46902;52.920;6.536;2023-07-13T07:34:02;20.00;99.90
61016;DHT22;46902;52.920;6.536;2023-07-13T07:36:28;20.00;99.90
61016;DHT22;46902;52.920;6.536;2023-07-13T07:38:54;19.90;99.90
61016;DHT22;46902;52.920;6.536;2023-07-13T07:41:19;19.70;99.90
61016;DHT22;46902;52.920;6.536;2023-07-13T07:43:45;19.60;99.90
61016;DHT22;46902;52.920;6.536;2023-07-13T07:46:11;19.40;99.90
61016;DHT22;46902;52.920;6.536;2023-07-13T07:48:36;19.20;99.90
61016;DHT22;46902;52.920;6.536;2023-07-13T07:51:02;19.20;99.90
61016;DHT22;46902;52.920;6.536;2023-07-13T07:53:28;19.10;99.90
61016;DHT22;46902;52.920;6.536;2023-07-13T07:55:53;19.20;99.90
61016;DHT22;46902;52.920;6.536;2023-07-13T07:58:19;19.30;99.90
61016;DHT22;46902;52.920;6.536;2023-07-13T08:00:44;19.50;99.90
61016;DHT22;46902;52.920;6.536;2023-07-13T08:03:10;19.50;99.90
61016;DHT22;46902;52.920;6.536;2023-07-13T08:05:36;19.60;99.90
61016;DHT22;46902;52.920;6.536;2023-07-13T08:08:03;19.80;99.90
61016;DHT22;46902;52.920;6.536;2023-07-13T08:10:28;20.00;99.90
61016;DHT22;46902;52.920;6.536;2023-07-13T08:12:54;20.10;99.90
61016;DHT22;46902;52.920;6.536;2023-07-13T08:15:20;20.10;99.90
61016;DHT22;46902;52.920;6.536;2023-07-13T08:17:47;20.00;99.90
61016;DHT22;46902;52.920;6.536;2023-07-13T08:20:13;19.80;99.90
61016;DHT22;46902;52.920;6.536;2023-07-13T08:22:39;19.70;99.90
61016;DHT22;46902;52.920;6.536;2023-07-13T08:25:05;19.60;99.90
61016;DHT22;46902;52.920;6.536;2023-07-13T08:27:31;19.40;99.90
61016;DHT22;46902;52.920;6.536;2023-07-13T08:29:56;19.20;99.90
61016;DHT22;46902;52.920;6.536;2023-07-13T08:32:23;19.10;99.90
61016;DHT22;46902;52.920;6.536;2023-07-13T08:34:48;18.90;99.90
61016;DHT22;46902;52.920;6.536;2023-07-13T08:37:14;18.70;99.90
61016;DHT22;46902;52.920;6.536;2023-07-13T08:39:40;18.50;99.90
61016;DHT22;46902;52.920;6.536;2023-07-13T08:42:22;18.30;99.90
61016;DHT22;46902;52.920;6.536;2023-07-13T08:48:15;18.10;99.90
61016;DHT22;46902;52.920;6.536;2023-07-13T08:50:52;17.90;99.90
61016;DHT22;46902;52.920;6.536;2023-07-13T08:53:21;17.80;99.90
61016;DHT22;46902;52.920;6.536;2023-07-13T08:55:51;17.80;99.90
61016;DHT22;46902;52.920;6.536;2023-07-13T08:58:19;17.90;99.90
61016;DHT22;46902;52.920;6.536;2023-07-13T09:00:52;17.90;99.90
61016;DHT22;46902;52.920;6.536;2023-07-13T09:03:23;18.00;99.90
61016;DHT22;46902;52.920;6.536;2023-07-13T09:05:54;18.00;99.90
61016;DHT22;46902;52.920;6.536;2023-07-13T09:16:25;17.90;99.90
61016;DHT22;46902;52.920;6.536;2023-07-13T09:18:56;18.00;99.90
61016;DHT22;46902;52.920;6.536;2023-07-13T09:21:32;17.90;99.90
61016;DHT22;46902;52.920;6.536;2023-07-13T09:24:03;17.90;99.90
61016;DHT22;46902;52.920;6.536;2023-07-13T09:26:32;17.90;99.90
61016;DHT22;46902;52.920;6.536;2023-07-13T09:29:03;17.90;99.90
61016;DHT22;46902;52.920;6.536;2023-07-13T09:31:43;17.80;99.90
61016;DHT22;46902;52.920;6.536;2023-07-13T09:34:11;17.80;99.90
61016;DHT22;46902;52.920;6.536;2023-07-13T09:36:37;17.60;99.90
61016;DHT22;46902;52.920;6.536;2023-07-13T09:39:12;17.40;99.90
61016;DHT22;46902;52.920;6.536;2023-07-13T09:42:01;17.50;99.90
61016;DHT22;46902;52.920;6.536;2023-07-13T09:44:32;17.60;99.90
61016;DHT22;46902;52.920;6.536;2023-07-13T09:46:59;17.90;99.90
61016;DHT22;46902;52.920;6.536;2023-07-13T09:49:35;18.10;99.90
61016;DHT22;46902;52.920;6.536;2023-07-13T09:52:03;18.60;99.90
61016;DHT22;46902;52.920;6.536;2023-07-13T09:54:34;18.90;99.90
61016;DHT22;46902;52.920;6.536;2023-07-13T09:57:01;19.20;99.90
61016;DHT22;46902;52.920;6.536;2023-07-13T09:59:30;19.40;99.90
61016;DHT22;46902;52.920;6.536;2023-07-13T10:01:56;19.70;99.90
61016;DHT22;46902;52.920;6.536;2023-07-13T10:04:33;19.90;99.90
61016;DHT22;46902;52.920;6.536;2023-07-13T10:07:11;20.20;99.90
61016;DHT22;46902;52.920;6.536;2023-07-13T10:09:38;20.50;99.90
61016;DHT22;46902;52.920;6.536;2023-07-13T10:12:12;20.70;99.90
61016;DHT22;46902;52.920;6.536;2023-07-13T10:14:40;20.90;99.90
61016;DHT22;46902;52.920;6.536;2023-07-13T10:17:11;21.10;99.90
61016;DHT22;46902;52.920;6.536;2023-07-13T10:19:38;21.30;99.90
61016;DHT22;46902;52.920;6.536;2023-07-13T10:22:27;21.50;99.90
61016;DHT22;46902;52.920;6.536;2023-07-13T10:24:57;21.80;99.90
61016;DHT22;46902;52.920;6.536;2023-07-13T10:27:33;22.10;99.90
61016;DHT22;46902;52.920;6.536;2023-07-13T10:30:19;22.30;99.90
61016;DHT22;46902;52.920;6.536;2023-07-13T10:32:46;22.60;99.90
61016;DHT22;46902;52.920;6.536;2023-07-13T10:35:14;22.70;99.90
61016;DHT22;46902;52.920;6.536;2023-07-13T10:37:54;22.90;99.90
61016;DHT22;46902;52.920;6.536;2023-07-13T10:40:37;23.10;99.70
61016;DHT22;46902;52.920;6.536;2023-07-13T10:43:09;23.30;99.50
61016;DHT22;46902;52.920;6.536;2023-07-13T10:45:36;23.50;99.40
61016;DHT22;46902;52.920;6.536;2023-07-13T10:48:03;23.60;99.00
61016;DHT22;46902;52.920;6.536;2023-07-13T10:50:30;23.70;98.80
61016;DHT22;46902;52.920;6.536;2023-07-13T10:58:22;23.10;95.40
61016;DHT22;46902;52.920;6.536;2023-07-13T11:03:29;23.10;93.90
61016;DHT22;46902;52.920;6.536;2023-07-13T11:06:09;23.10;94.50
61016;DHT22;46902;52.920;6.536;2023-07-13T11:11:38;22.90;91.10
61016;DHT22;46902;52.920;6.536;2023-07-13T11:14:36;22.80;90.40
61016;DHT22;46902;52.920;6.536;2023-07-13T11:22:45;22.10;90.90
61016;DHT22;46902;52.920;6.536;2023-07-13T11:25:32;22.10;91.30
61016;DHT22;46902;52.920;6.536;2023-07-13T11:30:44;21.90;91.00
61016;DHT22;46902;52.920;6.536;2023-07-13T11:36:02;21.90;91.00
61016;DHT22;46902;52.920;6.536;2023-07-13T11:38:42;22.10;90.40
61016;DHT22;46902;52.920;6.536;2023-07-13T11:41:21;22.00;87.60
61016;DHT22;46902;52.920;6.536;2023-07-13T11:43:55;22.00;84.30
61016;DHT22;46902;52.920;6.536;2023-07-13T11:46:23;21.80;85.60
61016;DHT22;46902;52.920;6.536;2023-07-13T11:48:50;21.70;85.50
61016;DHT22;46902;52.920;6.536;2023-07-13T11:51:26;21.60;86.80
61016;DHT22;46902;52.920;6.536;2023-07-13T11:53:54;21.60;86.30
61016;DHT22;46902;52.920;6.536;2023-07-13T11:56:23;21.60;87.90
61016;DHT22;46902;52.920;6.536;2023-07-13T11:58:51;21.50;90.20
61016;DHT22;46902;52.920;6.536;2023-07-13T12:01:24;21.50;86.20
61016;DHT22;46902;52.920;6.536;2023-07-13T12:03:52;21.50;84.50
61016;DHT22;46902;52.920;6.536;2023-07-13T12:06:28;21.40;84.30
61016;DHT22;46902;52.920;6.536;2023-07-13T12:08:59;21.40;84.00
61016;DHT22;46902;52.920;6.536;2023-07-13T12:11:26;21.30;83.90
61016;DHT22;46902;52.920;6.536;2023-07-13T12:13:52;21.40;83.50
61016;DHT22;46902;52.920;6.536;2023-07-13T12:16:29;21.40;81.70
61016;DHT22;46902;52.920;6.536;2023-07-13T12:18:59;21.60;81.60
61016;DHT22;46902;52.920;6.536;2023-07-13T12:21:33;21.60;81.10
61016;DHT22;46902;52.920;6.536;2023-07-13T12:24:00;21.60;80.90
61016;DHT22;46902;52.920;6.536;2023-07-13T12:26:30;21.50;79.10
61016;DHT22;46902;52.920;6.536;2023-07-13T12:28:58;21.60;79.10
61016;DHT22;46902;52.920;6.536;2023-07-13T12:31:45;21.90;79.30
61016;DHT22;46902;52.920;6.536;2023-07-13T12:34:19;22.40;80.90
61016;DHT22;46902;52.920;6.536;2023-07-13T12:36:53;22.90;77.80
61016;DHT22;46902;52.920;6.536;2023-07-13T12:41:51;23.80;74.80
61016;DHT22;46902;52.920;6.536;2023-07-13T12:44:29;24.30;73.10
61016;DHT22;46902;52.920;6.536;2023-07-13T12:47:04;24.60;70.40
61016;DHT22;46902;52.920;6.536;2023-07-13T12:49:32;24.80;69.80
61016;DHT22;46902;52.920;6.536;2023-07-13T12:52:02;25.00;67.90
61016;DHT22;46902;52.920;6.536;2023-07-13T12:54:30;24.80;65.90
61016;DHT22;46902;52.920;6.536;2023-07-13T12:56:57;24.50;66.30
61016;DHT22;46902;52.920;6.536;2023-07-13T12:59:26;24.50;67.80
61016;DHT22;46902;52.920;6.536;2023-07-13T13:01:54;24.70;66.40
61016;DHT22;46902;52.920;6.536;2023-07-13T13:04:20;24.50;65.70
61016;DHT22;46902;52.920;6.536;2023-07-13T13:06:47;24.20;65.50
61016;DHT22;46902;52.920;6.536;2023-07-13T13:09:15;23.90;64.00
61016;DHT22;46902;52.920;6.536;2023-07-13T13:11:41;23.90;64.40
61016;DHT22;46902;52.920;6.536;2023-07-13T13:14:07;24.10;65.10
61016;DHT22;46902;52.920;6.536;2023-07-13T13:16:54;24.40;65.00
61016;DHT22;46902;52.920;6.536;2023-07-13T13:19:24;24.70;63.40
61016;DHT22;46902;52.920;6.536;2023-07-13T13:21:52;24.90;63.10
61016;DHT22;46902;52.920;6.536;2023-07-13T13:24:21;24.90;64.10
61016;DHT22;46902;52.920;6.536;2023-07-13T13:26:47;25.00;65.10
61016;DHT22;46902;52.920;6.536;2023-07-13T13:29:20;24.90;65.10
61016;DHT22;46902;52.920;6.536;2023-07-13T13:31:46;24.90;62.80
61016;DHT22;46902;52.920;6.536;2023-07-13T13:34:14;25.10;64.20
61016;DHT22;46902;52.920;6.536;2023-07-13T13:36:41;25.30;64.00
61016;DHT22;46902;52.920;6.536;2023-07-13T13:41:49;25.40;63.10
61016;DHT22;46902;52.920;6.536;2023-07-13T13:44:16;25.20;63.20
61016;DHT22;46902;52.920;6.536;2023-07-13T13:46:44;24.80;62.70
61016;DHT22;46902;52.920;6.536;2023-07-13T13:49:23;24.60;63.10
61016;DHT22;46902;52.920;6.536;2023-07-13T13:51:49;24.70;62.70
61016;DHT22;46902;52.920;6.536;2023-07-13T13:54:17;24.70;62.30
61016;DHT22;46902;52.920;6.536;2023-07-13T13:56:46;24.50;61.80
61016;DHT22;46902;52.920;6.536;2023-07-13T13:59:13;24.40;61.70
61016;DHT22;46902;52.920;6.536;2023-07-13T14:01:39;24.50;62.30
61016;DHT22;46902;52.920;6.536;2023-07-13T14:04:06;24.60;62.10
61016;DHT22;46902;52.920;6.536;2023-07-13T14:06:33;24.50;62.20
61016;DHT22;46902;52.920;6.536;2023-07-13T14:08:59;24.30;62.70
61016;DHT22;46902;52.920;6.536;2023-07-13T14:11:25;24.20;62.20
61016;DHT22;46902;52.920;6.536;2023-07-13T14:13:56;24.20;62.50
61016;DHT22;46902;52.920;6.536;2023-07-13T14:16:27;24.10;63.30
61016;DHT22;46902;52.920;6.536;2023-07-13T14:18:53;23.90;64.30
61016;DHT22;46902;52.920;6.536;2023-07-13T14:21:22;23.80;65.30
61016;DHT22;46902;52.920;6.536;2023-07-13T14:23:48;23.80;65.60
61016;DHT22;46902;52.920;6.536;2023-07-13T14:28:47;24.00;65.90
61016;DHT22;46902;52.920;6.536;2023-07-13T14:31:14;24.00;65.10
61016;DHT22;46902;52.920;6.536;2023-07-13T14:33:40;24.10;65.40
61016;DHT22;46902;52.920;6.536;2023-07-13T14:38:50;24.30;64.80
61016;DHT22;46902;52.920;6.536;2023-07-13T14:41:16;24.20;65.30
61016;DHT22;46902;52.920;6.536;2023-07-13T14:43:42;24.10;65.50
61016;DHT22;46902;52.920;6.536;2023-07-13T14:46:24;24.00;66.00
61016;DHT22;46902;52.920;6.536;2023-07-13T14:48:55;23.90;66.10
61016;DHT22;46902;52.920;6.536;2023-07-13T14:51:24;23.90;66.00
61016;DHT22;46902;52.920;6.536;2023-07-13T14:53:50;23.80;66.20
61016;DHT22;46902;52.920;6.536;2023-07-13T14:56:16;23.80;66.10
61016;DHT22;46902;52.920;6.536;2023-07-13T14:58:42;23.80;66.50
61016;DHT22;46902;52.920;6.536;2023-07-13T15:01:15;23.70;65.80
61016;DHT22;46902;52.920;6.536;2023-07-13T15:03:45;23.60;65.40
61016;DHT22;46902;52.920;6.536;2023-07-13T15:06:12;23.60;65.10
61016;DHT22;46902;52.920;6.536;2023-07-13T15:08:39;23.70;66.00
61016;DHT22;46902;52.920;6.536;2023-07-13T15:11:07;23.70;65.50
61016;DHT22;46902;52.920;6.536;2023-07-13T15:13:32;24.00;65.70
61016;DHT22;46902;52.920;6.536;2023-07-13T15:16:00;24.20;65.80
61016;DHT22;46902;52.920;6.536;2023-07-13T15:18:26;24.20;64.50
61016;DHT22;46902;52.920;6.536;2023-07-13T15:20:53;24.00;64.50
61016;DHT22;46902;52.920;6.536;2023-07-13T15:23:22;24.00;65.20
61016;DHT22;46902;52.920;6.536;2023-07-13T15:25:48;24.00;64.50
61016;DHT22;46902;52.920;6.536;2023-07-13T15:28:14;23.90;64.80
61016;DHT22;46902;52.920;6.536;2023-07-13T15:30:45;23.90;65.00
61016;DHT22;46902;52.920;6.536;2023-07-13T15:33:17;24.10;65.40
61016;DHT22;46902;52.920;6.536;2023-07-13T15:35:45;24.20;65.10
61016;DHT22;46902;52.920;6.536;2023-07-13T15:38:38;24.30;65.00
61016;DHT22;46902;52.920;6.536;2023-07-13T15:41:19;24.20;63.40
61016;DHT22;46902;52.920;6.536;2023-07-13T15:43:49;24.10;64.20
61016;DHT22;46902;52.920;6.536;2023-07-13T15:46:20;24.10;64.20
61016;DHT22;46902;52.920;6.536;2023-07-13T15:48:51;24.30;65.30
61016;DHT22;46902;52.920;6.536;2023-07-13T15:51:25;24.30;64.80
61016;DHT22;46902;52.920;6.536;2023-07-13T15:53:57;24.50;64.80
61016;DHT22;46902;52.920;6.536;2023-07-13T15:56:28;24.50;64.50
61016;DHT22;46902;52.920;6.536;2023-07-13T15:58:55;24.40;64.00
61016;DHT22;46902;52.920;6.536;2023-07-13T16:01:22;24.20;64.90
61016;DHT22;46902;52.920;6.536;2023-07-13T16:03:49;24.10;65.40
61016;DHT22;46902;52.920;6.536;2023-07-13T16:06:32;23.90;66.10
61016;DHT22;46902;52.920;6.536;2023-07-13T16:08:58;23.80;65.90
61016;DHT22;46902;52.920;6.536;2023-07-13T16:11:32;23.80;65.90
61016;DHT22;46902;52.920;6.536;2023-07-13T16:13:58;23.90;66.10
61016;DHT22;46902;52.920;6.536;2023-07-13T16:16:31;24.00;66.10
61016;DHT22;46902;52.920;6.536;2023-07-13T16:18:58;24.10;65.90
61016;DHT22;46902;52.920;6.536;2023-07-13T16:21:27;24.10;65.60